Time;durP1;ratioP1;P1;durP2;ratioP2;P2;SDS_P1;SDS_P2;PMS_P1;PMS_P2;Temp;Humidity;BMP_temperature;BMP_pressure;BME280_temperature;BME280_humidity;BME280_pressure;Samples;Min_cycle;Max_cycle;Signal;HPM_P1;HPM_P2
2022/05/31 00:02:13;;;;;;;6.13;5.53;;;;;;;11.27;67.66;101180.47;5038994;28;20249;-64
2022/05/31 00:04:38;;;;;;;6.03;5.33;;;;;;;11.38;67.11;101183.25;5038216;28;20487;-64
2022/05/31 00:07:04;;;;;;;6.03;4.90;;;;;;;11.22;67.42;101178.69;5039392;28;20425;-64
2022/05/31 00:09:30;;;;;;;5.70;5.20;;;;;;;11.39;67.72;101173.66;5038847;28;20197;-64
2022/05/31 00:11:57;;;;;;;5.97;5.30;;;;;;;11.33;67.47;101174.47;5038415;28;20506;-64
2022/05/31 00:14:23;;;;;;;6.70;5.90;;;;;;;11.36;67.76;101169.28;5039326;28;20558;-63
2022/05/31 00:16:48;;;;;;;5.20;4.70;;;;;;;11.44;67.00;101169.38;5038352;28;20472;-63
2022/05/31 00:19:15;;;;;;;8.37;5.77;;;;;;;11.27;67.69;101182.19;5038659;28;20424;-63
2022/05/31 00:21:45;;;;;;;5.40;4.90;;;;;;;11.39;67.93;101176.28;5038807;28;20442;-64
2022/05/31 00:24:17;;;;;;;5.40;4.90;;;;;;;11.16;68.18;101176.81;5038469;28;20428;-64
2022/05/31 00:26:42;;;;;;;6.93;4.83;;;;;;;11.03;68.87;101185.34;5038659;28;20431;-64
2022/05/31 00:29:09;;;;;;;6.07;4.60;;;;;;;11.11;68.15;101182.00;5038522;28;20433;-64
2022/05/31 00:31:40;;;;;;;6.10;5.10;;;;;;;10.67;69.53;101182.19;5038465;28;20193;-64
2022/05/31 00:34:06;;;;;;;7.67;6.07;;;;;;;11.11;68.93;101179.38;5038106;28;20384;-64
2022/05/31 00:36:31;;;;;;;5.73;5.23;;;;;;;11.05;68.56;101179.28;5038331;28;20449;-64
2022/05/31 00:38:57;;;;;;;5.90;5.30;;;;;;;10.97;69.11;101169.59;5038233;28;20417;-63
2022/05/31 00:41:23;;;;;;;6.07;5.47;;;;;;;10.82;69.21;101171.13;5038758;28;20550;-64
2022/05/31 00:43:48;;;;;;;6.47;5.43;;;;;;;11.00;68.44;101172.25;5038312;28;20216;-64
2022/05/31 00:46:13;;;;;;;5.57;5.07;;;;;;;10.97;68.91;101167.00;5038270;28;20162;-64
2022/05/31 00:48:47;;;;;;;6.17;5.57;;;;;;;11.12;68.85;101180.25;5038701;28;20169;-64
2022/05/31 00:51:15;;;;;;;5.27;4.77;;;;;;;10.82;68.92;101180.69;5038172;28;20478;-64
2022/05/31 00:53:51;;;;;;;5.90;5.30;;;;;;;10.98;69.55;101174.84;5037996;28;20420;-64
2022/05/31 00:56:26;;;;;;;5.93;5.33;;;;;;;11.13;68.93;101174.19;5037327;28;20487;-64
2022/05/31 00:59:04;;;;;;;5.70;5.10;;;;;;;11.06;68.80;101173.22;5038030;28;20459;-64
2022/05/31 01:01:34;;;;;;;5.20;4.70;;;;;;;11.01;69.25;101176.63;5037383;28;20419;-64
2022/05/31 01:03:59;;;;;;;6.53;5.90;;;;;;;10.94;69.59;101175.66;5037253;28;20456;-63
2022/05/31 01:06:25;;;;;;;5.87;5.37;;;;;;;11.07;69.57;101174.13;5038013;28;20788;-63
2022/05/31 01:08:53;;;;;;;5.83;5.23;;;;;;;11.05;69.82;101179.28;5038127;28;20174;-63
2022/05/31 01:11:21;;;;;;;6.93;5.70;;;;;;;11.22;69.23;101178.69;5037731;28;20170;-64
2022/05/31 01:13:47;;;;;;;6.30;5.37;;;;;;;11.00;70.05;101180.06;5037707;28;20391;-64
2022/05/31 01:16:13;;;;;;;9.10;6.17;;;;;;;11.05;70.17;101176.66;5036938;28;20519;-63
2022/05/31 01:18:39;;;;;;;6.33;5.80;;;;;;;10.83;70.75;101183.31;5038265;28;20436;-64
2022/05/31 01:21:05;;;;;;;6.70;6.00;;;;;;;11.03;70.35;101173.19;5037769;28;20417;-63
2022/05/31 01:23:43;;;;;;;6.47;5.87;;;;;;;10.77;70.75;101173.66;5036963;28;20166;-63
2022/05/31 01:26:15;;;;;;;6.50;5.77;;;;;;;10.88;70.94;101172.94;5041262;28;20477;-63
2022/05/31 01:28:46;;;;;;;6.50;5.90;;;;;;;10.76;71.31;101177.13;5041026;28;20411;-63
2022/05/31 01:31:22;;;;;;;6.73;5.77;;;;;;;11.08;71.01;101181.97;5041839;28;20467;-64
2022/05/31 01:33:56;;;;;;;8.20;6.53;;;;;;;11.06;70.97;101172.34;5040889;28;20416;-63
2022/05/31 01:36:30;;;;;;;6.60;6.07;;;;;;;10.77;71.52;101177.97;5041008;28;20427;-64
2022/05/31 01:39:02;;;;;;;6.67;6.07;;;;;;;10.84;71.61;101173.75;5041614;28;20424;-64
2022/05/31 01:41:38;;;;;;;8.03;7.23;;;;;;;10.89;71.60;101177.31;5041500;28;20459;-63
2022/05/31 01:44:08;;;;;;;6.80;6.10;;;;;;;10.49;72.21;101177.53;5040732;28;20482;-63
2022/05/31 01:46:34;;;;;;;7.30;6.33;;;;;;;10.66;72.30;101184.75;5040611;28;20530;-63
2022/05/31 01:49:21;;;;;;;6.70;6.07;;;;;;;10.69;72.07;101184.81;5041451;28;20474;-63
2022/05/31 01:51:47;;;;;;;7.40;6.73;;;;;;;10.81;71.67;101181.53;5041452;28;20802;-63
2022/05/31 01:54:14;;;;;;;8.00;6.80;;;;;;;10.98;70.93;101177.44;5040565;28;20404;-64
2022/05/31 01:56:41;;;;;;;6.97;6.37;;;;;;;10.72;71.46;101185.75;5041745;28;20182;-64
2022/05/31 01:59:07;;;;;;;7.53;6.80;;;;;;;10.70;71.67;101177.03;5040565;28;20448;-63
2022/05/31 02:01:34;;;;;;;8.33;6.53;;;;;;;10.78;71.49;101183.25;5041145;28;20448;-63
2022/05/31 02:04:00;;;;;;;8.27;6.60;;;;;;;10.82;71.32;101176.31;5040691;28;20174;-63
2022/05/31 02:06:29;;;;;;;7.23;6.53;;;;;;;10.79;71.64;101174.53;5041155;28;20451;-64
2022/05/31 02:08:54;;;;;;;7.00;6.37;;;;;;;10.64;71.26;101171.72;5041243;28;20209;-64
2022/05/31 02:11:20;;;;;;;7.00;6.20;;;;;;;10.70;71.56;101173.53;5041533;28;20661;-64
2022/05/31 02:13:45;;;;;;;7.60;6.70;;;;;;;10.76;71.72;101171.03;5040868;28;20432;-64
2022/05/31 02:16:11;;;;;;;7.63;6.93;;;;;;;10.71;71.93;101167.47;5040603;28;20218;-64
2022/05/31 02:21:20;;;;;;;8.03;7.23;;;;;;;10.58;72.21;101175.09;5041037;28;20189;-63
2022/05/31 02:23:45;;;;;;;7.90;7.10;;;;;;;10.57;72.25;101167.25;5040751;28;20421;-62
2022/05/31 02:26:10;;;;;;;7.50;6.80;;;;;;;10.44;72.83;101174.88;5040938;28;20167;-63
2022/05/31 02:28:36;;;;;;;8.20;7.40;;;;;;;10.50;72.92;101173.19;5040701;28;20576;-64
2022/05/31 02:31:01;;;;;;;9.03;7.40;;;;;;;10.48;72.78;101173.19;5040924;28;20198;-62
2022/05/31 02:33:26;;;;;;;8.50;7.63;;;;;;;10.56;72.21;101162.88;5040554;28;20181;-63
2022/05/31 02:35:52;;;;;;;8.63;7.73;;;;;;;10.59;72.68;101162.94;5039289;28;20579;-63
2022/05/31 02:38:17;;;;;;;8.13;6.80;;;;;;;10.37;72.66;101167.78;5040918;28;20190;-64
2022/05/31 02:40:42;;;;;;;7.87;6.93;;;;;;;10.49;72.39;101168.88;5040877;28;20532;-63
2022/05/31 02:43:09;;;;;;;8.57;6.93;;;;;;;10.26;72.66;101171.91;5040360;28;20247;-63
2022/05/31 02:45:34;;;;;;;8.40;7.60;;;;;;;10.37;72.80;101172.13;5040949;28;20162;-63
2022/05/31 02:47:59;;;;;;;8.43;7.20;;;;;;;10.52;72.76;101176.72;5040303;28;20424;-63
2022/05/31 02:50:26;;;;;;;7.40;6.70;;;;;;;10.49;72.58;101172.34;5039608;28;20216;-63
2022/05/31 02:52:51;;;;;;;6.87;6.27;;;;;;;10.51;72.18;101164.53;5040676;28;20172;-64
2022/05/31 02:55:17;;;;;;;10.20;6.33;;;;;;;10.55;72.04;101166.34;5040388;28;20404;-64
2022/05/31 02:57:42;;;;;;;7.60;6.83;;;;;;;10.51;72.45;101161.94;5040221;28;20248;-63
2022/05/31 03:00:08;;;;;;;9.17;7.57;;;;;;;10.62;72.03;101168.19;5040653;28;20209;-64
2022/05/31 03:02:35;;;;;;;9.80;8.07;;;;;;;10.66;71.79;101166.50;5040036;28;20221;-63
2022/05/31 03:05:01;;;;;;;9.20;6.90;;;;;;;10.50;72.34;101168.88;5040296;28;20424;-63
2022/05/31 03:07:26;;;;;;;7.90;7.10;;;;;;;10.43;72.67;101162.69;5040690;28;20455;-64
2022/05/31 03:09:51;;;;;;;8.90;7.03;;;;;;;10.65;71.93;101170.88;5040185;28;20563;-64
2022/05/31 03:12:18;;;;;;;8.83;7.87;;;;;;;10.68;71.47;101160.47;5040048;28;20166;-64
2022/05/31 03:14:49;;;;;;;8.17;7.37;;;;;;;10.47;71.71;101173.16;5039767;28;20181;-62
2022/05/31 03:17:29;;;;;;;8.57;7.67;;;;;;;10.56;71.87;101165.50;5038969;28;20703;-63
2022/05/31 03:20:00;;;;;;;8.90;7.60;;;;;;;10.58;71.36;101172.50;5038901;28;20404;-64
2022/05/31 03:22:31;;;;;;;8.50;7.47;;;;;;;10.32;72.43;101165.91;5038753;28;20698;-64
2022/05/31 03:25:02;;;;;;;11.37;8.27;;;;;;;10.45;72.35;101173.13;5038035;28;20424;-64
2022/05/31 03:27:28;;;;;;;7.50;6.80;;;;;;;10.22;73.01;101172.69;5038531;28;20440;-64
2022/05/31 03:29:55;;;;;;;8.67;7.87;;;;;;;10.28;73.16;101167.59;5038193;28;20471;-64
2022/05/31 03:32:22;;;;;;;8.77;7.87;;;;;;;10.45;72.99;101168.78;5039229;28;20566;-63
2022/05/31 03:34:48;;;;;;;8.67;7.77;;;;;;;10.64;72.25;101170.84;5038626;28;20842;-63
2022/05/31 03:37:13;;;;;;;8.63;7.83;;;;;;;10.50;72.88;101168.88;5038550;28;20464;-64
2022/05/31 03:39:39;;;;;;;9.03;8.13;;;;;;;10.52;72.14;101171.50;5039087;28;20177;-64
2022/05/31 03:42:07;;;;;;;9.70;8.63;;;;;;;10.58;72.36;101172.50;5038377;28;20208;-63
2022/05/31 03:44:33;;;;;;;8.67;7.77;;;;;;;10.53;72.73;101173.28;5038513;28;20231;-64
2022/05/31 03:46:58;;;;;;;8.83;7.90;;;;;;;10.47;72.70;101167.94;5037207;28;20401;-64
2022/05/31 03:49:24;;;;;;;9.50;8.47;;;;;;;10.49;72.64;101168.88;5037764;28;20179;-64
2022/05/31 03:51:49;;;;;;;8.13;7.20;;;;;;;11.11;70.90;101166.34;5037485;28;20170;-64
2022/05/31 03:54:14;;;;;;;8.60;7.30;;;;;;;11.95;68.20;101164.81;5038701;28;20178;-63
2022/05/31 03:56:40;;;;;;;8.23;7.23;;;;;;;12.70;65.27;101162.00;5038029;28;20554;-63
2022/05/31 03:59:05;;;;;;;7.50;6.73;;;;;;;13.55;62.05;101161.66;5038229;28;20174;-63
2022/05/31 04:01:30;;;;;;;6.80;6.13;;;;;;;13.69;61.73;101157.31;5038631;28;20228;-63
2022/05/31 04:03:56;;;;;;;6.30;5.73;;;;;;;13.42;61.23;101164.22;5038093;28;20185;-64
2022/05/31 04:06:22;;;;;;;6.63;5.83;;;;;;;13.56;61.69;101156.41;5038258;28;20171;-63
2022/05/31 04:08:47;;;;;;;7.30;6.60;;;;;;;13.24;61.59;101164.09;5038545;28;20158;-64
2022/05/31 04:11:12;;;;;;;6.87;6.03;;;;;;;14.21;59.04;101167.09;5037996;28;20185;-64
2022/05/31 04:13:38;;;;;;;6.53;5.93;;;;;;;14.46;58.64;101156.59;5037847;28;20184;-64
2022/05/31 04:16:08;;;;;;;6.33;5.83;;;;;;;15.07;56.75;101166.22;5001623;28;1051113;-63
2022/05/31 04:18:34;;;;;;;6.60;6.00;;;;;;;15.42;55.43;101157.34;5038731;28;20178;-64
2022/05/31 04:21:02;;;;;;;6.43;5.83;;;;;;;15.34;55.54;101164.38;5038082;28;20396;-64
2022/05/31 04:26:12;;;;;;;6.57;5.90;;;;;;;15.81;54.02;101160.69;5038708;28;20468;-64
2022/05/31 04:28:37;;;;;;;7.43;6.73;;;;;;;16.25;53.18;101160.44;5038519;28;20472;-64
2022/05/31 04:31:02;;;;;;;5.87;5.40;;;;;;;16.42;52.52;101161.19;5038555;28;20525;-65
2022/05/31 04:33:28;;;;;;;6.00;5.50;;;;;;;16.67;51.91;101159.22;5038676;28;20622;-65
2022/05/31 04:35:58;;;;;;;6.10;5.60;;;;;;;16.67;51.35;101161.84;5038453;28;20178;-65
2022/05/31 04:38:23;;;;;;;6.37;5.50;;;;;;;16.24;53.17;101164.84;5038447;28;20442;-64
2022/05/31 04:40:48;;;;;;;7.07;6.37;;;;;;;16.32;52.60;101163.00;5038715;28;20435;-64
2022/05/31 04:43:14;;;;;;;6.20;5.60;;;;;;;16.78;51.28;101153.84;5038159;28;20265;-64
2022/05/31 04:45:40;;;;;;;6.20;5.70;;;;;;;17.16;50.96;101150.00;5038164;28;20174;-64
2022/05/31 04:48:05;;;;;;;5.80;5.40;;;;;;;17.57;49.67;101149.50;5038478;28;20404;-64
2022/05/31 04:50:30;;;;;;;6.27;5.77;;;;;;;17.69;49.41;101154.63;5038093;28;20174;-64
2022/05/31 04:52:55;;;;;;;6.73;6.20;;;;;;;18.06;48.87;101150.63;5038114;28;20559;-64
2022/05/31 04:55:21;;;;;;;6.53;5.90;;;;;;;18.11;48.28;101156.72;5038493;28;20170;-64
2022/05/31 04:57:46;;;;;;;6.53;5.93;;;;;;;18.08;48.41;101155.00;5037815;28;20216;-65
2022/05/31 05:00:13;;;;;;;7.43;6.40;;;;;;;17.88;48.26;101149.97;5037959;28;20194;-64
2022/05/31 05:02:38;;;;;;;7.33;6.30;;;;;;;18.22;47.17;101153.91;5038324;28;20189;-64
2022/05/31 05:05:03;;;;;;;9.67;7.10;;;;;;;17.98;47.47;101145.47;5038091;28;20417;-65
2022/05/31 05:07:30;;;;;;;7.40;6.70;;;;;;;18.42;47.13;101146.53;5037940;28;20185;-65
2022/05/31 05:09:55;;;;;;;6.90;6.30;;;;;;;18.46;46.90;101158.78;5038344;28;20199;-65
2022/05/31 05:12:21;;;;;;;8.07;7.30;;;;;;;18.38;46.62;101154.53;5038112;28;20517;-64
2022/05/31 05:14:47;;;;;;;7.30;6.03;;;;;;;18.22;46.98;101154.78;5037753;28;20235;-64
2022/05/31 05:17:13;;;;;;;6.77;6.07;;;;;;;18.65;45.75;101150.56;5037826;28;20226;-65
2022/05/31 05:19:38;;;;;;;7.70;5.93;;;;;;;19.14;44.61;101154.97;5037772;28;20417;-64
2022/05/31 05:22:03;;;;;;;5.77;5.27;;;;;;;19.87;43.26;101152.63;5037851;28;20469;-64
2022/05/31 05:24:29;;;;;;;7.07;4.90;;;;;;;19.89;42.91;101153.47;5037819;28;20174;-65
2022/05/31 05:26:54;;;;;;;5.60;5.10;;;;;;;19.53;43.53;101157.69;5037942;28;20201;-64
2022/05/31 05:32:11;;;;;;;7.83;5.20;;;;;;;19.79;42.71;101155.41;5029311;28;20187;-65
2022/05/31 05:34:36;;;;;;;5.23;4.83;;;;;;;19.92;42.46;101148.13;5037673;28;20413;-65
2022/05/31 05:37:02;;;;;;;4.97;4.50;;;;;;;18.82;44.54;101155.53;5037569;28;20206;-65
2022/05/31 05:39:27;;;;;;;4.93;4.63;;;;;;;19.85;41.65;101157.97;5037512;28;20556;-64
2022/05/31 05:41:52;;;;;;;4.83;3.93;;;;;;;18.74;43.14;101155.69;5037922;28;20180;-65
2022/05/31 05:44:18;;;;;;;5.80;4.10;;;;;;;20.52;40.34;101158.13;5036660;28;20233;-64
2022/05/31 05:46:43;;;;;;;13.77;12.40;;;;;;;;;;5037464;28;20186;-65
2022/05/31 05:49:08;;;;;;;4.77;3.80;;;;;;;20.66;38.76;101152.47;5037839;28;20177;-66
2022/05/31 05:51:34;;;;;;;4.80;4.00;;;;;;;21.03;38.83;101150.66;5037583;28;20432;-65
2022/05/31 05:54:02;;;;;;;4.70;4.23;;;;;;;20.96;39.61;101151.72;5037190;28;20174;-64
2022/05/31 05:56:28;;;;;;;4.20;3.80;;;;;;;21.23;38.37;101149.22;5037884;28;20197;-64
2022/05/31 05:58:53;;;;;;;4.13;3.73;;;;;;;21.59;37.57;101154.41;5037349;28;20412;-65
2022/05/31 06:01:25;;;;;;;5.13;3.80;;;;;;;21.14;38.35;101148.56;5037337;28;20182;-65
2022/05/31 06:03:56;;;;;;;3.90;3.60;;;;;;;21.81;37.14;101152.88;5036941;28;20528;-65
2022/05/31 06:06:22;;;;;;;3.50;3.20;;;;;;;22.06;36.65;101149.44;5037416;28;20416;-65
2022/05/31 06:09:04;;;;;;;3.30;3.10;;;;;;;21.55;37.39;101156.28;5036782;28;20401;-65
2022/05/31 06:11:39;;;;;;;3.90;3.33;;;;;;;22.26;35.60;101156.75;5039529;28;20413;-64
2022/05/31 06:14:17;;;;;;;3.30;3.00;;;;;;;22.95;34.09;101153.56;5040878;28;20419;-64
2022/05/31 06:16:46;;;;;;;3.30;3.00;;;;;;;19.27;40.36;101160.03;5040038;28;20487;-65
2022/05/31 06:19:16;;;;;;;5.17;3.60;;;;;;;21.09;37.45;101158.44;5040798;28;20444;-65
2022/05/31 06:21:43;;;;;;;3.47;3.13;;;;;;;21.60;37.13;101157.03;5040655;28;20409;-63
2022/05/31 06:24:08;;;;;;;3.40;3.10;;;;;;;21.42;36.43;101146.91;5040052;28;20451;-65
2022/05/31 06:26:34;;;;;;;3.47;2.93;;;;;;;21.84;35.40;101149.25;5040089;28;20405;-66
2022/05/31 06:28:59;;;;;;;5.50;3.30;;;;;;;22.86;35.22;101152.09;5040632;28;20220;-65
2022/05/31 06:31:24;;;;;;;8.80;3.67;;;;;;;21.30;36.67;101156.97;5040525;28;20170;-65
2022/05/31 06:33:50;;;;;;;3.00;2.80;;;;;;;21.42;36.56;101155.75;5040820;28;20211;-65
2022/05/31 06:36:15;;;;;;;3.37;3.07;;;;;;;21.50;35.81;101161.72;5040193;28;20185;-66
2022/05/31 06:38:41;;;;;;;16.33;4.10;;;;;;;21.67;36.37;101163.00;5040497;28;20175;-66
2022/05/31 06:41:07;;;;;;;3.60;3.10;;;;;;;21.95;35.76;101156.88;5040931;28;20220;-66
2022/05/31 06:43:33;;;;;;;48.80;6.80;;;;;;;21.71;35.75;101156.69;5040435;28;20503;-66
2022/05/31 06:46:03;;;;;;;3.63;3.20;;;;;;;23.82;33.17;101148.56;5040190;28;20174;-66
2022/05/31 06:48:28;;;;;;;9.33;3.70;;;;;;;22.84;33.43;101153.94;5040825;28;20397;-67
2022/05/31 06:50:53;;;;;;;3.57;3.20;;;;;;;21.99;34.45;101161.19;5040150;28;20558;-65
2022/05/31 06:58:46;;;;;;;4.50;2.80;;;;;;;22.88;34.10;101155.56;5040043;28;20466;-66
2022/05/31 07:01:12;;;;;;;4.83;3.10;;;;;;;23.53;32.48;101153.25;5040195;28;20413;-65
2022/05/31 07:03:37;;;;;;;3.50;3.20;;;;;;;22.64;33.51;101153.78;5040001;28;20203;-65
2022/05/31 07:06:02;;;;;;;3.40;3.10;;;;;;;20.30;37.41;101164.88;5040396;28;20171;-65
2022/05/31 07:08:28;;;;;;;3.27;2.90;;;;;;;20.50;37.53;101161.75;5039808;28;20182;-66
2022/05/31 07:10:54;;;;;;;4.63;3.40;;;;;;;19.71;38.91;101175.88;5039555;28;20189;-66
2022/05/31 07:13:20;;;;;;;3.70;3.40;;;;;;;19.01;40.58;101178.13;5040220;28;20173;-65
2022/05/31 07:15:46;;;;;;;3.50;3.20;;;;;;;19.38;39.16;101173.91;5038861;28;20498;-66
2022/05/31 07:18:11;;;;;;;18.53;3.87;;;;;;;19.06;40.58;101164.81;5038581;28;20548;-65
2022/05/31 07:20:36;;;;;;;3.87;3.30;;;;;;;21.07;37.56;101170.00;5040067;28;20178;-65
2022/05/31 07:23:02;;;;;;;4.50;4.10;;;;;;;21.33;35.55;101156.03;5038327;28;20185;-65
2022/05/31 07:25:27;;;;;;;4.13;3.83;;;;;;;23.45;33.03;101158.00;5039732;28;20185;-65
2022/05/31 07:27:52;;;;;;;7.20;6.37;;;;;;;22.88;33.83;101160.03;5039793;28;20218;-66
2022/05/31 07:30:18;;;;;;;3.73;3.40;;;;;;;20.70;36.11;101166.53;5039534;28;20174;-67
2022/05/31 07:32:43;;;;;;;4.70;4.30;;;;;;;20.85;35.45;101165.25;5039341;28;20502;-66
2022/05/31 07:35:09;;;;;;;3.60;3.30;;;;;;;21.32;35.25;101162.22;5039860;28;20181;-65
2022/05/31 07:37:35;;;;;;;5.00;4.60;;;;;;;22.00;35.10;101157.56;5039127;28;20466;-65
2022/05/31 07:40:01;;;;;;;4.53;3.80;;;;;;;22.04;34.53;101156.56;5039387;28;20178;-66
2022/05/31 07:42:26;;;;;;;4.60;4.20;;;;;;;22.33;33.56;101152.97;5040014;28;20171;-64
2022/05/31 07:44:53;;;;;;;4.50;3.30;;;;;;;21.99;34.01;101153.22;5039154;28;20868;-66
2022/05/31 07:47:18;;;;;;;3.53;3.23;;;;;;;21.73;35.77;101154.88;5039151;28;20298;-66
2022/05/31 07:49:44;;;;;;;4.50;4.10;;;;;;;21.41;35.22;101155.81;5038757;28;20417;-66
2022/05/31 07:52:09;;;;;;;5.83;4.07;;;;;;;19.74;38.19;101162.56;5038855;28;20174;-66
2022/05/31 07:54:35;;;;;;;4.00;3.70;;;;;;;19.02;40.30;101165.78;5038938;28;20184;-64
2022/05/31 07:57:05;;;;;;;5.13;4.37;;;;;;;18.84;40.90;101151.09;5039665;28;20233;-65
2022/05/31 07:59:31;;;;;;;5.10;4.60;;;;;;;19.33;39.90;101162.53;5039139;28;20571;-65
2022/05/31 08:01:56;;;;;;;6.10;4.97;;;;;;;19.37;39.60;101156.28;5038829;28;20425;-65
2022/05/31 08:04:22;;;;;;;8.23;7.10;;;;;;;18.72;40.98;101154.84;5039323;28;20717;-67
2022/05/31 08:06:48;;;;;;;6.83;5.43;;;;;;;17.78;42.21;101157.16;5038601;28;20178;-66
2022/05/31 08:09:13;;;;;;;9.10;8.20;;;;;;;19.35;41.17;101153.69;5038674;28;20536;-65
2022/05/31 08:11:38;;;;;;;7.10;6.40;;;;;;;19.71;39.78;101160.88;5039056;28;20401;-65
2022/05/31 08:14:04;;;;;;;6.07;5.40;;;;;;;19.30;39.92;101158.19;5038718;28;20182;-65
2022/05/31 08:16:30;;;;;;;5.67;5.10;;;;;;;20.36;38.51;101154.13;5038486;28;20587;-66
2022/05/31 08:18:56;;;;;;;20.00;10.00;;;;;;;20.77;38.27;101148.69;5038219;28;20210;-65
2022/05/31 08:21:27;;;;;;;5.10;4.70;;;;;;;20.91;35.25;101137.75;5038383;28;20235;-64
2022/05/31 08:24:02;;;;;;;5.33;4.83;;;;;;;20.17;37.68;101146.63;5038178;28;20512;-64
2022/05/31 08:26:28;;;;;;;5.10;4.70;;;;;;;22.71;34.76;101136.69;5038174;28;20500;-65
2022/05/31 08:28:53;;;;;;;4.80;4.40;;;;;;;22.66;33.71;101133.31;5038112;28;20914;-65
2022/05/31 08:31:23;;;;;;;4.20;3.80;;;;;;;21.69;34.59;101134.66;5038632;28;20163;-66
2022/05/31 08:33:48;;;;;;;5.10;4.70;;;;;;;21.51;34.62;101136.03;5036908;28;20446;-66
2022/05/31 08:36:14;;;;;;;4.70;4.30;;;;;;;22.15;33.52;101127.00;5037447;28;20423;-66
2022/05/31 08:38:40;;;;;;;4.33;3.93;;;;;;;20.53;35.77;101133.38;5038825;28;20178;-66
2022/05/31 08:41:18;;;;;;;4.30;3.90;;;;;;;20.63;35.84;101131.34;5037168;28;20208;-66
2022/05/31 08:43:46;;;;;;;43.47;7.40;;;;;;;21.42;34.86;101120.38;5037972;28;20684;-67
2022/05/31 08:46:29;;;;;;;36.17;8.03;;;;;;;21.45;35.14;101121.19;5038228;28;20835;-66
2022/05/31 08:49:18;;;;;;;12.33;5.63;;;;;;;21.36;35.79;101117.03;5038129;28;20448;-66
2022/05/31 08:52:04;;;;;;;14.53;6.20;;;;;;;21.10;36.84;101127.50;5037243;28;20431;-66
2022/05/31 08:57:53;;;;;;;5.20;4.80;;;;;;;21.40;35.68;101122.22;5037781;28;20476;-65
2022/05/31 09:00:26;;;;;;;5.20;4.80;;;;;;;20.87;36.59;101118.41;5037117;28;20464;-65
2022/05/31 09:03:14;;;;;;;7.10;5.70;;;;;;;23.19;33.23;101113.72;5037004;28;20678;-66
2022/05/31 09:05:45;;;;;;;6.50;5.90;;;;;;;23.77;31.09;101105.28;5037998;28;20408;-65
2022/05/31 09:08:24;;;;;;;7.60;6.20;;;;;;;23.34;32.75;101109.63;5037859;28;20417;-66
2022/05/31 09:11:14;;;;;;;5.87;5.37;;;;;;;22.51;33.32;101105.50;5037804;28;20417;-66
2022/05/31 09:14:00;;;;;;;5.23;4.83;;;;;;;23.96;31.12;101108.09;5037494;28;20571;-66
2022/05/31 09:16:47;;;;;;;5.70;5.20;;;;;;;22.54;32.57;101108.91;5036738;28;20460;-65
2022/05/31 09:19:26;;;;;;;6.13;5.33;;;;;;;22.61;33.61;101103.38;5037597;28;20417;-66
2022/05/31 09:21:51;;;;;;;11.00;7.40;;;;;;;23.26;32.21;101104.63;5036769;28;20726;-65
2022/05/31 09:24:19;;;;;;;6.10;5.60;;;;;;;21.90;33.16;101113.69;5037465;28;20417;-65
2022/05/31 09:26:53;;;;;;;6.43;5.87;;;;;;;22.62;32.48;101102.47;5036769;28;20555;-66
2022/05/31 09:29:21;;;;;;;6.53;5.93;;;;;;;22.18;32.51;101111.00;5037507;28;20432;-66
2022/05/31 09:32:00;;;;;;;7.13;5.90;;;;;;;21.42;34.11;101105.38;5036650;28;20715;-66
2022/05/31 09:34:48;;;;;;;5.33;4.77;;;;;;;20.59;35.17;101116.44;5037637;28;20515;-64
2022/05/31 09:37:32;;;;;;;11.77;6.00;;;;;;;20.04;37.13;101108.13;5036530;28;20849;-66
2022/05/31 09:40:25;;;;;;;6.43;5.90;;;;;;;20.28;37.10;101106.66;5037447;28;20401;-66
2022/05/31 09:43:24;;;;;;;5.20;4.80;;;;;;;19.73;37.74;101103.53;5037487;28;20411;-65
2022/05/31 09:46:10;;;;;;;4.73;4.23;;;;;;;19.86;36.83;101101.47;5038766;28;20445;-65
2022/05/31 09:48:46;;;;;;;4.63;4.10;;;;;;;19.29;38.06;101110.63;5041665;28;20747;-65
2022/05/31 09:51:31;;;;;;;4.60;4.20;;;;;;;19.00;38.54;101110.31;5041519;28;20829;-64
2022/05/31 09:59:28;;;;;;;5.67;5.17;;;;;;;19.18;38.92;101108.22;5041399;28;20489;-65
2022/05/31 10:01:54;;;;;;;4.50;4.20;;;;;;;18.59;38.06;101095.22;5041219;28;20416;-65
2022/05/31 10:04:28;;;;;;;4.10;3.80;;;;;;;18.75;38.84;101094.03;5040186;28;20822;-65
2022/05/31 10:06:58;;;;;;;10.57;9.57;;;;;;;19.35;37.99;101099.94;5040981;28;20440;-65
2022/05/31 10:09:34;;;;;;;6.80;5.00;;;;;;;18.94;38.28;101089.31;5041096;28;20413;-66
2022/05/31 10:12:05;;;;;;;5.13;3.60;;;;;;;18.34;38.01;101090.38;5040881;28;20412;-65
2022/05/31 10:14:36;;;;;;;4.20;3.90;;;;;;;19.15;38.33;101101.22;5040035;28;20412;-64
2022/05/31 10:17:29;;;;;;;3.90;3.60;;;;;;;19.33;38.31;101104.38;5039881;28;20479;-64
2022/05/31 10:20:09;;;;;;;3.80;3.20;;;;;;;19.65;35.57;101086.94;5040771;28;20411;-65
2022/05/31 10:22:35;;;;;;;3.80;3.50;;;;;;;20.13;35.83;101078.78;5040164;28;20444;-66
2022/05/31 10:25:20;;;;;;;5.30;4.80;;;;;;;19.64;36.62;101086.06;5040844;28;20437;-65
2022/05/31 10:27:45;;;;;;;5.17;4.67;;;;;;;19.87;36.04;101087.34;5040558;28;20443;-65
2022/05/31 10:30:18;;;;;;;3.83;3.50;;;;;;;19.45;35.43;101085.59;5040538;28;20409;-65
2022/05/31 10:32:48;;;;;;;3.60;3.30;;;;;;;20.10;34.87;101091.22;5039852;28;20487;-65
2022/05/31 10:35:19;;;;;;;3.83;3.53;;;;;;;20.28;35.92;101082.84;5040519;28;20417;-64
2022/05/31 10:38:24;;;;;;;4.83;3.50;;;;;;;20.39;34.81;101074.63;5040309;28;20464;-64
2022/05/31 10:41:03;;;;;;;4.10;3.70;;;;;;;21.09;34.29;101068.31;5040379;28;20425;-65
2022/05/31 10:43:31;;;;;;;3.90;3.50;;;;;;;22.18;31.79;101064.06;5039462;28;20425;-65
2022/05/31 10:45:56;;;;;;;14.20;5.80;;;;;;;22.36;31.41;101057.28;5039589;28;20425;-65
2022/05/31 10:48:22;;;;;;;4.27;3.10;;;;;;;23.43;29.48;101041.91;5040126;28;20417;-66
2022/05/31 10:51:07;;;;;;;9.57;3.63;;;;;;;22.03;32.42;101054.81;5039402;28;20201;-65
2022/05/31 10:53:57;;;;;;;3.03;2.50;;;;;;;23.36;28.88;101044.78;5039167;28;20173;-65
2022/05/31 10:56:28;;;;;;;3.27;2.97;;;;;;;22.80;30.05;101048.66;5039925;28;20433;-65
2022/05/31 10:59:01;;;;;;;3.40;3.10;;;;;;;23.77;30.13;101048.53;5039328;28;20431;-65
2022/05/31 11:01:49;;;;;;;2.87;2.57;;;;;;;22.84;29.57;101042.31;5039087;28;20435;-64
2022/05/31 11:04:19;;;;;;;4.53;3.10;;;;;;;22.87;30.23;101047.50;5038898;28;20491;-65
2022/05/31 11:07:06;;;;;;;7.80;3.03;;;;;;;22.71;30.63;101046.31;5039247;28;20409;-64
2022/05/31 11:12:49;;;;;;;3.03;2.83;;;;;;;23.08;30.07;101044.94;5039650;28;20424;-64
2022/05/31 11:15:25;;;;;;;2.90;2.70;;;;;;;23.13;28.65;101048.34;5039651;28;20653;-65
2022/05/31 11:17:56;;;;;;;3.50;3.13;;;;;;;23.49;28.88;101038.97;5039725;28;20472;-66
2022/05/31 11:21:13;;;;;;;3.53;3.23;;;;;;;23.10;28.36;101035.13;5038910;28;20806;-65
2022/05/31 11:24:16;;;;;;;2.60;2.40;;;;;;;23.16;27.40;101037.56;5038687;28;20424;-66
2022/05/31 11:27:20;;;;;;;3.03;2.73;;;;;;;20.64;31.27;101043.03;5039495;28;20393;-65
2022/05/31 11:30:03;;;;;;;3.20;2.90;;;;;;;22.42;28.95;101034.06;5039713;28;20423;-64
2022/05/31 11:32:36;;;;;;;3.40;2.87;;;;;;;22.78;30.58;101031.03;5038718;28;20471;-65
2022/05/31 11:35:09;;;;;;;4.23;3.63;;;;;;;23.88;29.09;101027.66;5039532;28;20429;-65
2022/05/31 11:37:46;;;;;;;3.57;3.27;;;;;;;23.42;29.16;101024.19;5038437;28;20955;-65
2022/05/31 11:40:35;;;;;;;2.67;2.47;;;;;;;22.83;28.93;101029.06;5039453;28;20424;-65
2022/05/31 11:43:16;;;;;;;3.30;3.00;;;;;;;22.33;30.25;101024.63;5038067;28;20409;-65
2022/05/31 11:45:59;;;;;;;3.03;2.83;;;;;;;22.60;29.02;101022.81;5038501;28;20421;-65
2022/05/31 11:48:43;;;;;;;4.83;2.90;;;;;;;23.37;28.63;101013.75;5038363;28;20437;-64
2022/05/31 11:51:30;;;;;;;3.53;3.20;;;;;;;22.27;30.17;101015.09;5039106;28;20447;-65
2022/05/31 11:54:26;;;;;;;3.10;2.80;;;;;;;21.74;29.25;101017.75;5038288;28;20500;-65
2022/05/31 11:57:22;;;;;;;3.27;3.00;;;;;;;22.78;27.90;101015.94;5039120;28;20457;-64
2022/05/31 12:00:04;;;;;;;3.47;3.10;;;;;;;22.14;28.96;101009.31;5038043;28;20833;-65
2022/05/31 12:02:45;;;;;;;4.23;3.83;;;;;;;22.92;27.75;101007.47;5038721;28;20429;-65
2022/05/31 12:05:18;;;;;;;3.13;2.80;;;;;;;21.99;29.44;101000.09;5038364;28;20424;-66